createdAt,value
2023-04-23T00:04:53.136Z,5.84
2023-04-23T00:09:58.290Z,5.80
2023-04-23T00:15:02.110Z,5.84
2023-04-23T00:20:06.655Z,5.86
2023-04-23T00:25:11.182Z,5.84
2023-04-23T00:30:14.733Z,5.78
2023-04-23T00:35:18.959Z,5.81
2023-04-23T00:40:23.847Z,5.77
2023-04-23T00:45:27.321Z,5.71
2023-04-23T00:50:31.003Z,5.77
2023-04-23T00:55:36.459Z,5.74
2023-04-23T01:00:46.693Z,5.72
2023-04-23T01:05:51.016Z,5.71
2023-04-23T01:10:56.566Z,5.64
2023-04-23T01:15:59.834Z,5.71
2023-04-23T01:21:06.547Z,5.72
2023-04-23T01:26:11.028Z,5.76
2023-04-23T01:31:14.965Z,5.84
2023-04-23T01:36:20.588Z,5.88
2023-04-23T01:41:24.201Z,5.90
2023-04-23T01:46:29.183Z,5.85
2023-04-23T01:51:32.348Z,5.83
2023-04-23T01:56:36.661Z,5.87
2023-04-23T02:01:45.823Z,5.82
2023-04-23T02:06:51.965Z,5.75
2023-04-23T02:11:55.575Z,5.69
2023-04-23T02:16:58.693Z,5.69
2023-04-23T02:22:02.175Z,5.65
2023-04-23T02:27:06.015Z,5.60
2023-04-23T02:32:09.855Z,5.52
2023-04-23T02:37:13.614Z,5.46
2023-04-23T02:42:16.921Z,5.37
2023-04-23T02:47:20.238Z,5.38
2023-04-23T02:52:24.182Z,5.31
2023-04-23T02:57:27.330Z,5.23
2023-04-23T03:02:31.012Z,5.24
2023-04-23T03:07:34.763Z,5.29
2023-04-23T03:12:38.481Z,5.25
2023-04-23T03:17:42.843Z,5.23
2023-04-23T03:22:47.303Z,4.90
2023-04-23T03:27:51.512Z,5.04
2023-04-23T03:32:58.775Z,5.02
2023-04-23T03:38:03.024Z,4.98
2023-04-23T03:43:06.803Z,5.02
2023-04-23T03:48:30.506Z,5.03
2023-04-23T03:53:36.538Z,4.80
2023-04-23T03:58:58.708Z,5.07
2023-04-23T04:04:03.594Z,4.97
2023-04-23T04:09:09.111Z,5.03
2023-04-23T04:14:14.145Z,5.08
2023-04-23T04:19:17.464Z,5.18
2023-04-23T04:24:23.770Z,5.11
2023-04-23T04:29:28.909Z,5.16
2023-04-23T04:34:32.971Z,5.30
2023-04-23T04:39:36.280Z,5.44
2023-04-23T04:44:40.680Z,5.40
2023-04-23T04:49:43.832Z,5.82
2023-04-23T04:54:47.367Z,6.10
2023-04-23T04:59:50.909Z,6.45
2023-04-23T05:04:54.363Z,6.70
2023-04-23T05:09:58.381Z,7.07
2023-04-23T05:15:01.848Z,7.31
2023-04-23T05:20:06.531Z,7.52
2023-04-23T05:25:14.874Z,7.75
2023-04-23T05:30:18.945Z,8.09
2023-04-23T05:35:22.197Z,8.49
2023-04-23T05:40:28.241Z,8.94
2023-04-23T05:45:31.713Z,9.58
2023-04-23T05:50:36.030Z,10.36
2023-04-23T05:55:39.878Z,11.15
2023-04-23T06:00:43.911Z,12.09
2023-04-23T06:05:47.412Z,12.66
2023-04-23T06:10:50.691Z,13.26
2023-04-23T06:15:53.920Z,13.77
2023-04-23T06:20:58.323Z,15.44
2023-04-23T06:26:01.401Z,17.20
2023-04-23T06:31:05.988Z,16.87
2023-04-23T06:36:12.594Z,17.53
2023-04-23T06:41:16.527Z,17.94
2023-04-23T06:46:19.644Z,17.78
2023-04-23T06:51:27.305Z,18.74
2023-04-23T06:56:30.838Z,18.83
2023-04-23T07:01:35.609Z,19.06
2023-04-23T07:06:39.202Z,20.02
2023-04-23T07:11:43.075Z,20.30
2023-04-23T07:16:47.005Z,20.36
2023-04-23T07:21:50.147Z,21.56
2023-04-23T07:26:53.361Z,21.24
2023-04-23T07:31:56.885Z,20.67
2023-04-23T07:37:00.227Z,21.38
2023-04-23T07:42:03.918Z,21.12
2023-04-23T07:47:08.114Z,21.25
2023-04-23T07:52:12.097Z,21.24
2023-04-23T07:57:15.313Z,21.63
2023-04-23T08:02:23.955Z,21.36
2023-04-23T08:07:27.707Z,21.94
2023-04-23T08:12:31.603Z,21.24
2023-04-23T08:17:35.837Z,21.73
2023-04-23T08:22:39.850Z,20.82
2023-04-23T08:27:43.068Z,21.27
2023-04-23T08:32:55.691Z,21.13
2023-04-23T08:37:58.863Z,22.30
2023-04-23T08:43:03.693Z,21.75
2023-04-23T08:48:07.228Z,21.71
2023-04-23T08:53:11.148Z,21.73
2023-04-23T08:58:15.251Z,21.21
2023-04-23T09:03:21.141Z,21.60
2023-04-23T09:08:25.271Z,22.16
2023-04-23T09:13:32.178Z,22.09
2023-04-23T09:18:36.085Z,21.25
2023-04-23T09:23:41.626Z,22.10
2023-04-23T09:28:47.473Z,22.66
2023-04-23T09:33:53.841Z,22.45
2023-04-23T09:38:57.957Z,22.13
2023-04-23T09:44:01.068Z,22.26
2023-04-23T09:49:08.198Z,23.00
2023-04-23T09:54:21.951Z,22.00
2023-04-23T10:04:35.148Z,23.08
2023-04-23T10:09:39.367Z,21.96
2023-04-23T10:14:43.800Z,23.50
2023-04-23T10:19:49.659Z,23.75
2023-04-23T10:24:59.192Z,22.79
2023-04-23T10:30:05.431Z,23.54
2023-04-23T10:35:11.154Z,23.24
2023-04-23T10:40:19.599Z,23.29
2023-04-23T10:45:25.186Z,23.35
2023-04-23T10:50:31.389Z,22.88
2023-04-23T10:55:35.330Z,22.27
2023-04-23T11:00:47.250Z,23.19
2023-04-23T11:05:50.834Z,23.92
2023-04-23T11:10:59.941Z,23.86
2023-04-23T11:16:22.395Z,23.96
2023-04-23T11:22:03.955Z,23.84
2023-04-23T11:27:10.394Z,23.29
2023-04-23T11:32:17.796Z,24.20
2023-04-23T11:37:21.691Z,24.05
2023-04-23T11:42:26.208Z,23.48
2023-04-23T11:47:30.689Z,24.99
2023-04-23T11:52:34.207Z,24.73
2023-04-23T11:57:42.063Z,23.01
2023-04-23T12:03:00.108Z,24.17
2023-04-23T12:08:16.726Z,22.18
2023-04-23T12:13:24.476Z,24.20
2023-04-23T12:18:32.462Z,23.41
2023-04-23T12:23:38.760Z,23.57
2023-04-23T12:28:52.088Z,23.51
2023-04-23T12:34:17.746Z,23.05
2023-04-23T12:39:27.529Z,22.65
2023-04-23T12:44:33.763Z,23.51
2023-04-23T12:49:39.981Z,23.27
2023-04-23T12:54:45.190Z,23.87
2023-04-23T12:59:48.765Z,23.62
2023-04-23T13:04:52.712Z,23.49
2023-04-23T13:09:57.484Z,23.58
2023-04-23T13:15:01.223Z,23.33
2023-04-23T13:20:05.781Z,23.03
2023-04-23T13:25:09.631Z,23.00
2023-04-23T13:30:14.154Z,22.62
2023-04-23T13:35:17.948Z,23.36
2023-04-23T13:40:21.562Z,23.38
2023-04-23T13:45:26.739Z,23.30
2023-04-23T13:50:30.244Z,24.85
2023-04-23T13:55:33.291Z,23.35
2023-04-23T14:00:36.785Z,23.09
2023-04-23T14:05:40.272Z,23.56
2023-04-23T14:10:44.482Z,22.40
2023-04-23T14:15:48.029Z,22.65
2023-04-23T14:20:52.307Z,22.90
2023-04-23T14:32:43.343Z,21.86
2023-04-23T14:37:47.160Z,22.23
2023-04-23T14:42:50.728Z,22.58
2023-04-23T14:47:54.302Z,22.08
2023-04-23T14:52:59.108Z,21.95
2023-04-23T14:58:02.452Z,21.11
2023-04-23T15:03:11.338Z,20.94
2023-04-23T15:08:15.077Z,21.88
2023-04-23T15:13:56.683Z,21.60
2023-04-23T15:19:03.279Z,21.43
2023-04-23T15:24:08.166Z,21.58
2023-04-23T15:29:14.042Z,21.13
2023-04-23T15:34:18.101Z,20.60
2023-04-23T15:39:22.479Z,20.83
2023-04-23T15:44:26.788Z,20.86
2023-04-23T15:49:30.664Z,20.21
2023-04-23T15:54:34.255Z,20.61
2023-04-23T15:59:37.848Z,19.35
2023-04-23T16:04:42.576Z,19.63
2023-04-23T16:09:46.985Z,18.83
2023-04-23T16:14:50.907Z,18.49
2023-04-23T16:19:54.522Z,17.60
2023-04-23T16:24:57.640Z,17.64
2023-04-23T16:30:01.856Z,16.77
2023-04-23T16:35:05.981Z,16.58
2023-04-23T16:40:10.632Z,16.07
2023-04-23T16:45:15.173Z,15.76
2023-04-23T16:50:18.978Z,15.47
2023-04-23T16:55:22.314Z,14.66
2023-04-23T17:00:25.986Z,14.43
2023-04-23T17:05:33.232Z,14.20
2023-04-23T17:10:37.132Z,14.38
2023-04-23T17:15:41.153Z,13.67
2023-04-23T17:20:45.122Z,13.51
2023-04-23T17:25:48.589Z,13.55
2023-04-23T17:30:54.084Z,12.76
2023-04-23T17:35:58.095Z,12.90
2023-04-23T17:41:01.420Z,12.91
2023-04-23T17:46:05.432Z,11.83
2023-04-23T17:51:10.435Z,12.45
2023-04-23T17:56:16.147Z,11.85
2023-04-23T18:01:19.841Z,11.56
2023-04-23T18:06:23.496Z,11.45
2023-04-23T18:11:27.042Z,11.53
2023-04-23T18:16:30.490Z,11.33
2023-04-23T18:21:34.393Z,11.00
2023-04-23T18:26:37.552Z,11.29
2023-04-23T18:31:41.767Z,10.82
2023-04-23T18:36:49.203Z,11.19
2023-04-23T18:41:53.152Z,11.12
2023-04-23T18:46:56.981Z,10.69
2023-04-23T18:52:00.872Z,11.14
2023-04-23T18:57:04.455Z,11.21
2023-04-23T19:02:09.098Z,11.04
2023-04-23T19:07:12.878Z,11.33
2023-04-23T19:12:17.435Z,11.61
2023-04-23T19:17:22.238Z,12.10
2023-04-23T19:22:26.066Z,11.87
2023-04-23T19:27:29.739Z,12.11
2023-04-23T19:32:36.780Z,11.72
2023-04-23T19:37:40.632Z,12.29
2023-04-23T19:42:44.567Z,12.20
2023-04-23T19:47:48.539Z,11.88
2023-04-23T19:52:52.878Z,12.00
2023-04-23T19:57:57.427Z,11.16
2023-04-23T20:03:01.145Z,11.36
2023-04-23T20:08:11.521Z,11.35
2023-04-23T20:13:15.648Z,11.12
2023-04-23T20:18:19.408Z,11.26
2023-04-23T20:23:23.703Z,10.58
2023-04-23T20:28:28.273Z,10.74
2023-04-23T20:33:33.092Z,11.15
2023-04-23T20:38:38.316Z,10.61
2023-04-23T20:43:43.676Z,10.65
2023-04-23T20:48:50.415Z,10.44
2023-04-23T20:53:54.611Z,10.37
2023-04-23T20:58:58.586Z,10.23
2023-04-23T21:04:02.103Z,10.22
2023-04-23T21:09:06.085Z,9.53
2023-04-23T21:14:10.339Z,9.71
2023-04-23T21:19:13.827Z,9.66
2023-04-23T21:24:18.061Z,10.06
2023-04-23T21:29:21.621Z,9.53
2023-04-23T21:34:25.638Z,10.06
2023-04-23T21:39:29.153Z,9.81
2023-04-23T21:44:33.235Z,10.23
2023-04-23T21:49:37.279Z,9.91
2023-04-23T21:54:40.341Z,9.80
2023-04-23T21:59:44.073Z,9.28
2023-04-23T22:04:48.487Z,9.81
2023-04-23T22:09:51.689Z,9.57
2023-04-23T22:14:55.830Z,9.24
2023-04-23T22:19:59.849Z,8.89
2023-04-23T22:25:06.739Z,9.03
2023-04-23T22:30:11.776Z,9.36
2023-04-23T22:35:15.033Z,9.27
2023-04-23T22:40:19.272Z,9.70
2023-04-23T22:45:22.569Z,9.66
2023-04-23T22:50:27.176Z,9.30
2023-04-23T22:55:30.617Z,8.95
2023-04-23T23:00:34.503Z,8.94
2023-04-23T23:05:37.777Z,9.32
2023-04-23T23:10:42.239Z,9.40
2023-04-23T23:15:45.745Z,9.45
2023-04-23T23:20:49.351Z,9.96
2023-04-23T23:25:53.393Z,10.61
2023-04-23T23:30:58.059Z,10.71
2023-04-23T23:36:01.999Z,10.49
2023-04-23T23:41:06.137Z,11.15
2023-04-23T23:46:10.954Z,10.74
2023-04-23T23:51:14.492Z,11.07
2023-04-23T23:56:18.132Z,11.18
